createdAt,value
2023-04-17T00:00:32.926Z,95203.00
2023-04-17T00:01:32.963Z,95203.00
2023-04-17T00:02:33.118Z,95203.00
2023-04-17T00:03:33.349Z,95205.00
2023-04-17T00:04:33.294Z,95205.00
2023-04-17T00:05:33.210Z,95201.00
2023-04-17T00:06:33.252Z,95203.00
2023-04-17T00:07:33.329Z,95203.00
2023-04-17T00:08:33.381Z,95201.00
2023-04-17T00:09:33.462Z,95201.00
2023-04-17T00:10:33.509Z,95199.00
2023-04-17T00:11:33.546Z,95201.00
2023-04-17T00:12:33.632Z,95199.00
2023-04-17T00:13:33.655Z,95201.00
2023-04-17T00:14:33.827Z,95199.00
2023-04-17T00:15:33.757Z,95201.00
2023-04-17T00:16:33.852Z,95205.00
2023-04-17T00:17:33.921Z,95199.00
2023-04-17T00:18:33.927Z,95203.00
2023-04-17T00:19:34.001Z,95203.00
2023-04-17T00:20:34.061Z,95201.00
2023-04-17T00:21:34.089Z,95205.00
2023-04-17T00:22:34.117Z,95201.00
2023-04-17T00:23:34.192Z,95203.00
2023-04-17T00:24:34.218Z,95203.00
2023-04-17T00:25:34.287Z,95199.00
2023-04-17T00:26:34.320Z,95203.00
2023-04-17T00:27:34.347Z,95199.00
2023-04-17T00:28:34.414Z,95201.00
2023-04-17T00:29:34.441Z,95203.00
2023-04-17T00:30:34.498Z,95203.00
2023-04-17T00:31:34.526Z,95203.00
2023-04-17T00:32:34.575Z,95203.00
2023-04-17T00:33:34.541Z,95203.00
2023-04-17T00:34:34.589Z,95203.00
2023-04-17T00:35:34.600Z,95199.00
2023-04-17T00:36:34.611Z,95205.00
2023-04-17T00:37:34.629Z,95203.00
2023-04-17T00:38:34.641Z,95201.00
2023-04-17T00:39:34.654Z,95199.00
2023-04-17T00:40:34.662Z,95199.00
2023-04-17T00:41:34.666Z,95198.00
2023-04-17T00:42:34.703Z,95198.00
2023-04-17T00:43:34.682Z,95196.00
2023-04-17T00:44:34.687Z,95192.00
2023-04-17T00:45:34.690Z,95198.00
2023-04-17T00:46:34.690Z,95196.00
2023-04-17T00:47:34.749Z,95198.00
2023-04-17T00:48:34.707Z,95196.00
2023-04-17T00:49:34.692Z,95196.00
2023-04-17T00:50:34.700Z,95196.00
2023-04-17T00:51:34.684Z,95196.00
2023-04-17T00:52:34.726Z,95192.00
2023-04-17T00:53:34.721Z,95194.00
2023-04-17T00:54:34.754Z,95194.00
2023-04-17T00:55:34.751Z,95194.00
2023-04-17T00:56:34.801Z,95190.00
2023-04-17T00:57:34.776Z,95192.00
2023-04-17T00:58:34.829Z,95194.00
2023-04-17T00:59:34.883Z,95192.00
2023-04-17T01:00:34.933Z,95192.00
2023-04-17T01:01:34.992Z,95190.00
2023-04-17T01:02:35.139Z,95190.00
2023-04-17T01:03:35.221Z,95192.00
2023-04-17T01:04:35.190Z,95192.00
2023-04-17T01:05:35.196Z,95194.00
2023-04-17T01:06:35.216Z,95194.00
2023-04-17T01:07:35.299Z,95194.00
2023-04-17T01:08:35.358Z,95194.00
2023-04-17T01:09:35.453Z,95194.00
2023-04-17T01:10:35.473Z,95192.00
2023-04-17T01:11:35.568Z,95194.00
2023-04-17T01:12:35.606Z,95192.00
2023-04-17T01:13:35.660Z,95190.00
2023-04-17T01:14:35.704Z,95194.00
2023-04-17T01:15:35.760Z,95192.00
2023-04-17T01:16:35.873Z,95194.00
2023-04-17T01:17:35.860Z,95196.00
2023-04-17T01:18:35.920Z,95196.00
2023-04-17T01:19:35.947Z,95196.00
2023-04-17T01:20:36.043Z,95194.00
2023-04-17T01:21:36.036Z,95192.00
2023-04-17T01:22:36.096Z,95196.00
2023-04-17T01:23:36.155Z,95194.00
2023-04-17T01:24:36.198Z,95194.00
2023-04-17T01:25:36.265Z,95192.00
2023-04-17T01:26:36.312Z,95192.00
2023-04-17T01:27:36.369Z,95190.00
2023-04-17T01:28:36.416Z,95194.00
2023-04-17T01:29:36.422Z,95192.00
2023-04-17T01:30:36.512Z,95192.00
2023-04-17T01:31:36.539Z,95190.00
2023-04-17T01:32:36.654Z,95188.00
2023-04-17T01:33:36.719Z,95190.00
2023-04-17T01:34:37.513Z,95190.00
2023-04-17T01:35:36.777Z,95188.00
2023-04-17T01:36:36.814Z,95190.00
2023-04-17T01:37:36.877Z,95188.00
2023-04-17T01:38:36.978Z,95188.00
2023-04-17T01:39:37.009Z,95186.00
2023-04-17T01:40:37.073Z,95188.00
2023-04-17T01:41:37.135Z,95186.00
2023-04-17T01:42:37.172Z,95186.00
2023-04-17T01:43:37.223Z,95186.00
2023-04-17T01:44:37.279Z,95186.00
2023-04-17T01:45:37.328Z,95188.00
2023-04-17T01:46:38.356Z,95186.00
2023-04-17T01:47:37.463Z,95188.00
2023-04-17T01:48:37.531Z,95186.00
2023-04-17T01:49:37.565Z,95188.00
2023-04-17T01:50:37.659Z,95188.00
2023-04-17T01:51:37.678Z,95190.00
2023-04-17T01:52:37.777Z,95186.00
2023-04-17T01:53:37.860Z,95190.00
2023-04-17T01:54:37.894Z,95188.00
2023-04-17T01:55:37.952Z,95190.00
2023-04-17T01:56:38.016Z,95188.00
2023-04-17T01:57:38.086Z,95188.00
2023-04-17T01:58:38.138Z,95188.00
2023-04-17T01:59:38.194Z,95188.00
2023-04-17T02:00:38.254Z,95188.00
2023-04-17T02:01:38.339Z,95188.00
2023-04-17T02:02:38.564Z,95188.00
2023-04-17T02:03:38.584Z,95186.00
2023-04-17T02:04:38.625Z,95188.00
2023-04-17T02:05:38.539Z,95186.00
2023-04-17T02:06:38.622Z,95188.00
2023-04-17T02:07:38.665Z,95186.00
2023-04-17T02:08:38.740Z,95184.00
2023-04-17T02:09:38.829Z,95188.00
2023-04-17T02:10:38.873Z,95186.00
2023-04-17T02:11:38.896Z,95186.00
2023-04-17T02:12:39.008Z,95184.00
2023-04-17T02:13:39.066Z,95188.00
2023-04-17T02:14:39.083Z,95184.00
2023-04-17T02:15:39.212Z,95192.00
2023-04-17T02:16:39.197Z,95188.00
2023-04-17T02:17:39.358Z,95188.00
2023-04-17T02:18:39.318Z,95188.00
2023-04-17T02:19:39.376Z,95188.00
2023-04-17T02:20:39.433Z,95190.00
2023-04-17T02:21:39.492Z,95190.00
2023-04-17T02:22:39.518Z,95192.00
2023-04-17T02:23:39.589Z,95192.00
2023-04-17T02:24:39.649Z,95192.00
2023-04-17T02:25:39.682Z,95190.00
2023-04-17T02:26:39.719Z,95196.00
2023-04-17T02:27:39.868Z,95194.00
2023-04-17T02:28:39.844Z,95190.00
2023-04-17T02:29:39.885Z,95194.00
2023-04-17T02:30:39.925Z,95194.00
2023-04-17T02:31:39.989Z,95190.00
2023-04-17T02:32:40.115Z,95192.00
2023-04-17T02:33:40.072Z,95192.00
2023-04-17T02:34:40.139Z,95190.00
2023-04-17T02:35:40.147Z,95194.00
2023-04-17T02:36:40.210Z,95194.00
2023-04-17T02:37:40.254Z,95192.00
2023-04-17T02:38:40.288Z,95192.00
2023-04-17T02:39:40.328Z,95190.00
2023-04-17T02:40:40.347Z,95190.00
2023-04-17T02:41:40.400Z,95188.00
2023-04-17T02:42:40.464Z,95190.00
2023-04-17T02:43:40.491Z,95188.00
2023-04-17T02:44:40.562Z,95188.00
2023-04-17T02:45:40.577Z,95190.00
2023-04-17T02:46:40.670Z,95188.00
2023-04-17T02:47:40.735Z,95186.00
2023-04-17T02:48:40.732Z,95188.00
2023-04-17T02:49:40.771Z,95186.00
2023-04-17T02:50:40.823Z,95190.00
2023-04-17T02:51:40.831Z,95188.00
2023-04-17T02:52:40.887Z,95188.00
2023-04-17T02:53:40.922Z,95190.00
2023-04-17T02:54:40.943Z,95188.00
2023-04-17T02:55:41.020Z,95186.00
2023-04-17T02:56:41.039Z,95188.00
2023-04-17T02:57:41.061Z,95186.00
2023-04-17T02:58:41.117Z,95190.00
2023-04-17T02:59:41.154Z,95186.00
2023-04-17T03:00:41.247Z,95188.00
2023-04-17T03:01:41.298Z,95186.00
2023-04-17T03:02:41.436Z,95186.00
2023-04-17T03:03:41.564Z,95184.00
2023-04-17T03:04:41.320Z,95186.00
2023-04-17T03:05:41.401Z,95182.00
2023-04-17T03:06:41.440Z,95180.00
2023-04-17T03:07:41.458Z,95184.00
2023-04-17T03:08:41.496Z,95182.00
2023-04-17T03:09:41.531Z,95184.00
2023-04-17T03:10:41.537Z,95184.00
2023-04-17T03:11:41.609Z,95182.00
2023-04-17T03:12:41.629Z,95186.00
2023-04-17T03:13:41.644Z,95186.00
2023-04-17T03:14:41.686Z,95186.00
2023-04-17T03:15:41.734Z,95190.00
2023-04-17T03:16:41.824Z,95190.00
2023-04-17T03:17:41.829Z,95190.00
2023-04-17T03:18:41.855Z,95190.00
2023-04-17T03:19:41.888Z,95188.00
2023-04-17T03:20:41.893Z,95188.00
2023-04-17T03:21:41.935Z,95192.00
2023-04-17T03:22:42.018Z,95192.00
2023-04-17T03:23:42.069Z,95190.00
2023-04-17T03:24:42.095Z,95192.00
2023-04-17T03:25:42.127Z,95192.00
2023-04-17T03:26:42.189Z,95190.00
2023-04-17T03:27:42.201Z,95192.00
2023-04-17T03:28:42.232Z,95192.00
2023-04-17T03:29:42.274Z,95192.00
2023-04-17T03:30:42.335Z,95194.00
2023-04-17T03:31:42.356Z,95196.00
2023-04-17T03:32:42.390Z,95194.00
2023-04-17T03:33:42.444Z,95194.00
2023-04-17T03:34:42.427Z,95198.00
2023-04-17T03:35:42.470Z,95198.00
2023-04-17T03:36:42.511Z,95198.00
2023-04-17T03:37:42.546Z,95199.00
2023-04-17T03:38:42.564Z,95198.00
2023-04-17T03:39:42.620Z,95201.00
2023-04-17T03:40:42.628Z,95201.00
2023-04-17T03:41:42.667Z,95201.00
2023-04-17T03:42:42.716Z,95201.00
2023-04-17T03:43:42.729Z,95203.00
2023-04-17T03:44:42.757Z,95203.00
2023-04-17T03:45:42.805Z,95207.00
2023-04-17T03:46:42.841Z,95205.00
2023-04-17T03:47:42.849Z,95207.00
2023-04-17T03:48:42.902Z,95207.00
2023-04-17T03:49:42.908Z,95207.00
2023-04-17T03:50:42.930Z,95209.00
2023-04-17T03:51:42.977Z,95211.00
2023-04-17T03:52:42.983Z,95211.00
2023-04-17T03:53:43.033Z,95213.00
2023-04-17T03:54:43.068Z,95211.00
2023-04-17T03:55:43.070Z,95211.00
2023-04-17T03:56:43.132Z,95211.00
2023-04-17T03:57:43.171Z,95211.00
2023-04-17T03:58:43.180Z,95211.00
2023-04-17T03:59:43.188Z,95217.00
2023-04-17T04:00:43.208Z,95215.00
2023-04-17T04:01:45.342Z,95217.00
2023-04-17T04:02:43.352Z,95217.00
2023-04-17T04:03:43.512Z,95217.00
2023-04-17T04:04:43.448Z,95217.00
2023-04-17T04:05:43.224Z,95217.00
2023-04-17T04:06:43.192Z,95217.00
2023-04-17T04:07:43.208Z,95215.00
2023-04-17T04:08:43.206Z,95215.00
2023-04-17T04:09:43.206Z,95217.00
2023-04-17T04:10:43.156Z,95217.00
2023-04-17T04:11:43.173Z,95215.00
2023-04-17T04:12:43.150Z,95215.00
2023-04-17T04:13:43.150Z,95215.00
2023-04-17T04:14:43.199Z,95213.00
2023-04-17T04:15:43.191Z,95211.00
2023-04-17T04:16:43.151Z,95213.00
2023-04-17T04:17:43.117Z,95213.00
2023-04-17T04:18:43.101Z,95215.00
2023-04-17T04:19:43.174Z,95215.00
2023-04-17T04:20:43.089Z,95215.00
2023-04-17T04:21:43.081Z,95215.00
2023-04-17T04:22:43.114Z,95213.00
2023-04-17T04:23:43.107Z,95211.00
2023-04-17T04:24:43.076Z,95211.00
2023-04-17T04:25:43.118Z,95211.00
2023-04-17T04:26:43.064Z,95211.00
2023-04-17T04:27:43.036Z,95215.00
2023-04-17T04:28:43.075Z,95213.00
2023-04-17T04:29:43.185Z,95213.00
2023-04-17T04:30:43.044Z,95211.00
2023-04-17T04:31:43.039Z,95215.00
2023-04-17T04:32:43.041Z,95213.00
2023-04-17T04:33:43.053Z,95211.00
2023-04-17T04:34:43.004Z,95215.00
2023-04-17T04:35:42.989Z,95215.00
2023-04-17T04:36:42.964Z,95211.00
2023-04-17T04:37:42.991Z,95211.00
2023-04-17T04:38:43.001Z,95211.00
2023-04-17T04:39:42.949Z,95213.00
2023-04-17T04:40:42.985Z,95213.00
2023-04-17T04:41:42.942Z,95211.00
2023-04-17T04:42:42.958Z,95213.00
2023-04-17T04:43:42.956Z,95209.00
2023-04-17T04:44:42.930Z,95209.00
2023-04-17T04:45:42.980Z,95209.00
2023-04-17T04:46:42.967Z,95213.00
2023-04-17T04:47:42.933Z,95211.00
2023-04-17T04:48:43.069Z,95211.00
2023-04-17T04:49:42.921Z,95211.00
2023-04-17T04:50:42.901Z,95213.00
2023-04-17T04:51:42.909Z,95213.00
2023-04-17T04:52:42.910Z,95215.00
2023-04-17T04:53:42.878Z,95215.00
2023-04-17T04:54:42.864Z,95217.00
2023-04-17T04:55:42.849Z,95217.00
2023-04-17T04:56:42.860Z,95217.00
2023-04-17T04:57:42.849Z,95219.00
2023-04-17T04:58:42.849Z,95219.00
2023-04-17T04:59:42.811Z,95221.00
2023-04-17T05:00:42.855Z,95221.00
2023-04-17T05:01:49.867Z,95223.00
2023-04-17T05:02:42.929Z,95223.00
2023-04-17T05:03:42.925Z,95223.00
2023-04-17T05:04:42.865Z,95221.00
2023-04-17T05:05:42.795Z,95223.00
2023-04-17T05:06:42.807Z,95223.00
2023-04-17T05:07:42.748Z,95223.00
2023-04-17T05:08:42.757Z,95223.00
2023-04-17T05:09:42.760Z,95225.00
2023-04-17T05:10:42.761Z,95225.00
2023-04-17T05:11:42.745Z,95227.00
2023-04-17T05:12:42.736Z,95227.00
2023-04-17T05:13:42.738Z,95225.00
2023-04-17T05:14:42.754Z,95225.00
2023-04-17T05:15:42.701Z,95225.00
2023-04-17T05:16:42.758Z,95227.00
2023-04-17T05:17:42.760Z,95229.00
2023-04-17T05:18:42.716Z,95229.00
2023-04-17T05:19:42.731Z,95227.00
2023-04-17T05:20:42.701Z,95231.00
2023-04-17T05:21:42.693Z,95231.00
2023-04-17T05:22:42.696Z,95231.00
2023-04-17T05:23:42.692Z,95231.00
2023-04-17T05:24:42.668Z,95233.00
2023-04-17T05:25:42.671Z,95231.00
2023-04-17T05:26:42.664Z,95233.00
2023-04-17T05:27:42.636Z,95233.00
2023-04-17T05:28:42.614Z,95235.00
2023-04-17T05:29:42.613Z,95237.00
2023-04-17T05:30:42.681Z,95239.00
2023-04-17T05:31:42.689Z,95241.00
2023-04-17T05:32:42.741Z,95235.00
2023-04-17T05:33:42.905Z,95243.00
2023-04-17T05:34:42.691Z,95239.00
2023-04-17T05:35:42.745Z,95243.00
2023-04-17T05:36:42.771Z,95243.00
2023-04-17T05:37:42.799Z,95245.00
2023-04-17T05:38:45.468Z,95241.00
2023-04-17T05:39:42.799Z,95243.00
2023-04-17T05:40:42.771Z,95243.00
2023-04-17T05:41:42.785Z,95249.00
2023-04-17T05:42:42.827Z,95243.00
2023-04-17T05:43:42.856Z,95247.00
2023-04-17T05:44:42.758Z,95245.00
2023-04-17T05:45:49.802Z,95251.00
2023-04-17T05:46:42.722Z,95243.00
2023-04-17T05:47:42.741Z,95245.00
2023-04-17T05:48:42.708Z,95247.00
2023-04-17T05:49:42.737Z,95247.00
2023-04-17T05:50:42.683Z,95247.00
2023-04-17T05:51:42.736Z,95245.00
2023-04-17T05:52:42.687Z,95249.00
2023-04-17T05:53:42.743Z,95251.00
2023-04-17T05:54:42.671Z,95249.00
2023-04-17T05:55:42.656Z,95251.00
2023-04-17T05:56:42.637Z,95251.00
2023-04-17T05:57:42.625Z,95251.00
2023-04-17T05:58:42.607Z,95251.00
2023-04-17T05:59:42.895Z,95247.00
2023-04-17T06:00:42.626Z,95245.00
2023-04-17T06:01:42.605Z,95247.00
2023-04-17T06:02:42.800Z,95245.00
2023-04-17T06:03:42.861Z,95247.00
2023-04-17T06:04:42.778Z,95249.00
2023-04-17T06:05:42.618Z,95249.00
2023-04-17T06:06:42.592Z,95249.00
2023-04-17T06:07:42.576Z,95253.00
2023-04-17T06:08:42.542Z,95253.00
2023-04-17T06:09:42.594Z,95254.00
2023-04-17T06:10:42.570Z,95254.00
2023-04-17T06:11:42.567Z,95254.00
2023-04-17T06:12:42.589Z,95254.00
2023-04-17T06:13:42.526Z,95253.00
2023-04-17T06:14:42.534Z,95260.00
2023-04-17T06:15:42.493Z,95258.00
2023-04-17T06:16:42.536Z,95262.00
2023-04-17T06:17:42.534Z,95264.00
2023-04-17T06:18:42.467Z,95264.00
2023-04-17T06:19:42.483Z,95262.00
2023-04-17T06:20:42.460Z,95262.00
2023-04-17T06:21:42.468Z,95264.00
2023-04-17T06:22:42.435Z,95262.00
2023-04-17T06:23:42.497Z,95262.00
2023-04-17T06:24:42.575Z,95264.00
2023-04-17T06:25:42.589Z,95264.00
2023-04-17T06:26:42.579Z,95266.00
2023-04-17T06:27:42.664Z,95266.00
2023-04-17T06:28:42.584Z,95266.00
2023-04-17T06:29:42.955Z,95268.00
2023-04-17T06:30:42.633Z,95270.00
2023-04-17T06:31:42.697Z,95270.00
2023-04-17T06:32:43.249Z,95276.00
2023-04-17T06:33:42.830Z,95274.00
2023-04-17T06:34:56.344Z,95274.00
2023-04-17T06:35:43.784Z,95272.00
2023-04-17T06:36:42.804Z,95276.00
2023-04-17T06:37:42.767Z,95276.00
2023-04-17T06:38:42.781Z,95276.00
2023-04-17T06:39:42.952Z,95276.00
2023-04-17T06:40:42.780Z,95272.00
2023-04-17T06:41:42.848Z,95270.00
2023-04-17T06:42:42.793Z,95274.00
2023-04-17T06:43:42.793Z,95268.00
2023-04-17T06:44:42.916Z,95274.00
2023-04-17T06:45:42.759Z,95272.00
2023-04-17T06:46:42.788Z,95276.00
2023-04-17T06:47:42.770Z,95278.00
2023-04-17T06:48:42.726Z,95272.00
2023-04-17T06:49:42.897Z,95272.00
2023-04-17T06:50:42.715Z,95276.00
2023-04-17T06:51:42.701Z,95274.00
2023-04-17T06:52:42.753Z,95276.00
2023-04-17T06:53:42.805Z,95274.00
2023-04-17T06:54:42.871Z,95274.00
2023-04-17T06:55:42.975Z,95272.00
2023-04-17T06:56:42.984Z,95274.00
2023-04-17T06:57:43.021Z,95274.00
2023-04-17T06:58:44.482Z,95274.00
2023-04-17T06:59:43.114Z,95278.00
2023-04-17T07:00:43.147Z,95280.00
2023-04-17T07:01:43.208Z,95278.00
2023-04-17T07:02:43.256Z,95280.00
2023-04-17T07:03:43.611Z,95276.00
2023-04-17T07:04:43.437Z,95278.00
2023-04-17T07:05:43.414Z,95276.00
2023-04-17T07:06:43.456Z,95276.00
2023-04-17T07:07:43.536Z,95280.00
2023-04-17T07:08:43.528Z,95276.00
2023-04-17T07:09:43.616Z,95278.00
2023-04-17T07:10:43.736Z,95278.00
2023-04-17T07:11:43.777Z,95282.00
2023-04-17T07:12:43.759Z,95282.00
2023-04-17T07:13:43.855Z,95284.00
2023-04-17T07:14:43.877Z,95280.00
2023-04-17T07:15:44.217Z,95284.00
2023-04-17T07:16:44.072Z,95282.00
2023-04-17T07:17:44.115Z,95286.00
2023-04-17T07:18:44.121Z,95284.00
2023-04-17T07:19:44.120Z,95284.00
2023-04-17T07:20:44.201Z,95290.00
2023-04-17T07:21:44.276Z,95290.00
2023-04-17T07:22:44.328Z,95288.00
2023-04-17T07:23:44.369Z,95290.00
2023-04-17T07:24:44.432Z,95288.00
2023-04-17T07:25:44.478Z,95290.00
2023-04-17T07:26:44.527Z,95290.00
2023-04-17T07:27:44.600Z,95286.00
2023-04-17T07:28:44.651Z,95288.00
2023-04-17T07:29:44.674Z,95292.00
2023-04-17T07:30:44.755Z,95290.00
2023-04-17T07:31:44.895Z,95290.00
2023-04-17T07:32:44.910Z,95288.00
2023-04-17T07:33:44.891Z,95290.00
2023-04-17T07:34:44.981Z,95290.00
2023-04-17T07:35:45.035Z,95290.00
2023-04-17T07:36:45.101Z,95290.00
2023-04-17T07:37:45.092Z,95292.00
2023-04-17T07:38:45.184Z,95290.00
2023-04-17T07:39:45.185Z,95290.00
2023-04-17T07:40:45.231Z,95290.00
2023-04-17T07:41:45.288Z,95290.00
2023-04-17T07:42:45.329Z,95290.00
2023-04-17T07:43:45.426Z,95290.00
2023-04-17T07:44:45.460Z,95288.00
2023-04-17T07:45:45.462Z,95286.00
2023-04-17T07:46:45.505Z,95282.00
2023-04-17T07:47:45.564Z,95290.00
2023-04-17T07:48:45.488Z,95290.00
2023-04-17T07:49:45.482Z,95288.00
2023-04-17T07:50:45.462Z,95288.00
2023-04-17T07:51:45.454Z,95286.00
2023-04-17T07:52:45.440Z,95286.00
2023-04-17T07:53:45.456Z,95286.00
2023-04-17T07:54:45.454Z,95286.00
2023-04-17T07:55:45.456Z,95286.00
2023-04-17T07:56:45.446Z,95284.00
2023-04-17T07:57:45.449Z,95286.00
2023-04-17T07:58:45.405Z,95284.00
2023-04-17T07:59:45.404Z,95284.00
2023-04-17T08:00:45.399Z,95284.00
2023-04-17T08:01:45.421Z,95284.00
2023-04-17T08:02:45.568Z,95286.00
2023-04-17T08:03:45.599Z,95286.00
2023-04-17T08:04:45.584Z,95290.00
2023-04-17T08:05:45.364Z,95290.00
2023-04-17T08:06:45.364Z,95288.00
2023-04-17T08:07:45.343Z,95286.00
2023-04-17T08:08:45.348Z,95290.00
2023-04-17T08:09:45.311Z,95288.00
2023-04-17T08:10:45.372Z,95286.00
2023-04-17T08:11:56.304Z,95284.00
2023-04-17T08:12:46.371Z,95288.00
2023-04-17T08:13:45.361Z,95290.00
2023-04-17T08:14:45.349Z,95290.00
2023-04-17T08:15:45.342Z,95288.00
2023-04-17T08:16:45.373Z,95286.00
2023-04-17T08:17:45.376Z,95290.00
2023-04-17T08:18:45.321Z,95288.00
2023-04-17T08:19:45.331Z,95292.00
2023-04-17T08:20:45.307Z,95290.00
2023-04-17T08:21:45.302Z,95288.00
2023-04-17T08:22:45.372Z,95286.00
2023-04-17T08:23:45.275Z,95286.00
2023-04-17T08:24:45.292Z,95286.00
2023-04-17T08:25:45.343Z,95286.00
2023-04-17T08:26:45.269Z,95282.00
2023-04-17T08:27:45.252Z,95284.00
2023-04-17T08:28:45.249Z,95280.00
2023-04-17T08:29:45.262Z,95280.00
2023-04-17T08:30:45.364Z,95278.00
2023-04-17T08:31:45.341Z,95274.00
2023-04-17T08:32:45.536Z,95276.00
2023-04-17T08:33:45.455Z,95276.00
2023-04-17T08:34:45.552Z,95274.00
2023-04-17T08:35:45.964Z,95274.00
2023-04-17T08:36:45.623Z,95270.00
2023-04-17T08:37:45.623Z,95272.00
2023-04-17T08:38:45.802Z,95272.00
2023-04-17T08:39:45.698Z,95268.00
2023-04-17T08:40:45.809Z,95268.00
2023-04-17T08:41:45.739Z,95268.00
2023-04-17T08:42:45.709Z,95270.00
2023-04-17T08:43:45.800Z,95270.00
2023-04-17T08:44:45.808Z,95270.00
2023-04-17T08:45:45.819Z,95268.00
2023-04-17T08:46:45.825Z,95264.00
2023-04-17T08:47:45.842Z,95264.00
2023-04-17T08:48:45.870Z,95262.00
2023-04-17T08:49:45.911Z,95260.00
2023-04-17T08:50:46.478Z,95262.00
2023-04-17T08:51:46.034Z,95262.00
2023-04-17T08:52:46.000Z,95256.00
2023-04-17T08:53:45.994Z,95260.00
2023-04-17T08:54:46.047Z,95258.00
2023-04-17T08:55:46.046Z,95260.00
2023-04-17T08:56:46.119Z,95258.00
2023-04-17T08:57:46.146Z,95260.00
2023-04-17T08:58:46.175Z,95258.00
2023-04-17T08:59:46.297Z,95256.00
2023-04-17T09:00:46.325Z,95260.00
2023-04-17T09:01:46.396Z,95258.00
2023-04-17T09:02:46.592Z,95253.00
2023-04-17T09:03:46.642Z,95253.00
2023-04-17T09:04:47.661Z,95253.00
2023-04-17T09:05:46.757Z,95253.00
2023-04-17T09:06:46.753Z,95253.00
2023-04-17T09:07:46.774Z,95251.00
2023-04-17T09:08:46.842Z,95251.00
2023-04-17T09:09:46.860Z,95253.00
2023-04-17T09:10:46.907Z,95251.00
2023-04-17T09:11:46.971Z,95254.00
2023-04-17T09:12:47.034Z,95249.00
2023-04-17T09:13:47.062Z,95247.00
2023-04-17T09:14:47.126Z,95247.00
2023-04-17T09:15:47.505Z,95247.00
2023-04-17T09:16:47.231Z,95249.00
2023-04-17T09:17:47.311Z,95247.00
2023-04-17T09:18:47.339Z,95249.00
2023-04-17T09:19:47.397Z,95247.00
2023-04-17T09:20:47.445Z,95251.00
2023-04-17T09:21:47.516Z,95249.00
2023-04-17T09:22:47.534Z,95247.00
2023-04-17T09:23:47.617Z,95249.00
2023-04-17T09:24:47.644Z,95247.00
2023-04-17T09:25:47.750Z,95247.00
2023-04-17T09:26:47.886Z,95247.00
2023-04-17T09:27:47.866Z,95245.00
2023-04-17T09:28:47.939Z,95247.00
2023-04-17T09:29:48.000Z,95245.00
2023-04-17T09:30:48.488Z,95249.00
2023-04-17T09:31:48.085Z,95245.00
2023-04-17T09:32:48.182Z,95247.00
2023-04-17T09:33:48.176Z,95245.00
2023-04-17T09:34:48.223Z,95245.00
2023-04-17T09:35:48.217Z,95245.00
2023-04-17T09:36:48.250Z,95243.00
2023-04-17T09:37:48.301Z,95245.00
2023-04-17T09:38:48.249Z,95245.00
2023-04-17T09:39:48.339Z,95241.00
2023-04-17T09:40:48.520Z,95241.00
2023-04-17T09:41:48.531Z,95241.00
2023-04-17T09:42:48.603Z,95237.00
2023-04-17T09:43:48.608Z,95241.00
2023-04-17T09:44:48.634Z,95239.00
2023-04-17T09:45:48.629Z,95237.00
2023-04-17T09:46:48.624Z,95235.00
2023-04-17T09:47:48.670Z,95237.00
2023-04-17T09:48:48.709Z,95239.00
2023-04-17T09:49:48.729Z,95237.00
2023-04-17T09:50:48.715Z,95239.00
2023-04-17T09:51:48.756Z,95241.00
2023-04-17T09:52:48.863Z,95239.00
2023-04-17T09:53:48.849Z,95239.00
2023-04-17T09:54:48.885Z,95241.00
2023-04-17T09:55:48.995Z,95233.00
2023-04-17T09:56:49.080Z,95237.00
2023-04-17T09:57:49.110Z,95239.00
2023-04-17T09:58:49.175Z,95237.00
2023-04-17T09:59:49.250Z,95241.00
2023-04-17T10:00:49.265Z,95237.00
2023-04-17T10:01:49.254Z,95239.00
2023-04-17T10:02:49.506Z,95239.00
2023-04-17T10:03:49.485Z,95241.00
2023-04-17T10:04:49.392Z,95239.00
2023-04-17T10:05:49.470Z,95241.00
2023-04-17T10:06:49.507Z,95239.00
2023-04-17T10:07:49.543Z,95235.00
2023-04-17T10:08:49.519Z,95237.00
2023-04-17T10:09:49.602Z,95237.00
2023-04-17T10:10:49.980Z,95237.00
2023-04-17T10:11:49.607Z,95235.00
2023-04-17T10:12:49.662Z,95233.00
2023-04-17T10:13:49.745Z,95233.00
2023-04-17T10:14:49.792Z,95235.00
2023-04-17T10:15:49.800Z,95233.00
2023-04-17T10:16:49.917Z,95231.00
2023-04-17T10:17:49.966Z,95229.00
2023-04-17T10:18:49.866Z,95229.00
2023-04-17T10:19:49.938Z,95229.00
2023-04-17T10:20:49.978Z,95229.00
2023-04-17T10:21:49.977Z,95227.00
2023-04-17T10:22:50.023Z,95229.00
2023-04-17T10:23:50.087Z,95229.00
2023-04-17T10:24:50.141Z,95227.00
2023-04-17T10:25:50.221Z,95223.00
2023-04-17T10:26:50.211Z,95227.00
2023-04-17T10:27:50.282Z,95227.00
2023-04-17T10:28:50.292Z,95225.00
2023-04-17T10:29:51.254Z,95225.00
2023-04-17T10:30:50.272Z,95221.00
2023-04-17T10:31:50.271Z,95223.00
2023-04-17T10:32:50.259Z,95221.00
2023-04-17T10:33:50.250Z,95221.00
2023-04-17T10:34:50.220Z,95221.00
2023-04-17T10:35:50.522Z,95221.00
2023-04-17T10:36:50.196Z,95219.00
2023-04-17T10:37:50.248Z,95221.00
2023-04-17T10:38:50.191Z,95219.00
2023-04-17T10:39:50.195Z,95219.00
2023-04-17T10:40:50.198Z,95219.00
2023-04-17T10:41:50.505Z,95219.00
2023-04-17T10:42:50.308Z,95217.00
2023-04-17T10:43:50.464Z,95217.00
2023-04-17T10:44:50.426Z,95219.00
2023-04-17T10:45:50.544Z,95217.00
2023-04-17T10:46:50.985Z,95217.00
2023-04-17T10:47:50.607Z,95215.00
2023-04-17T10:48:50.801Z,95215.00
2023-04-17T10:49:50.660Z,95215.00
2023-04-17T10:50:50.699Z,95215.00
2023-04-17T10:51:50.675Z,95215.00
2023-04-17T10:52:50.698Z,95217.00
2023-04-17T10:53:50.690Z,95211.00
2023-04-17T10:54:50.706Z,95211.00
2023-04-17T10:55:50.721Z,95211.00
2023-04-17T10:56:50.737Z,95211.00
2023-04-17T10:57:50.816Z,95213.00
2023-04-17T10:58:50.716Z,95213.00
2023-04-17T10:59:50.722Z,95213.00
2023-04-17T11:00:50.898Z,95213.00
2023-04-17T11:01:51.181Z,95211.00
2023-04-17T11:02:50.911Z,95211.00
2023-04-17T11:03:50.873Z,95213.00
2023-04-17T11:04:50.892Z,95209.00
2023-04-17T11:05:50.885Z,95209.00
2023-04-17T11:06:51.015Z,95209.00
2023-04-17T11:07:50.945Z,95205.00
2023-04-17T11:08:50.877Z,95205.00
2023-04-17T11:09:50.895Z,95205.00
2023-04-17T11:10:50.871Z,95207.00
2023-04-17T11:11:50.953Z,95205.00
2023-04-17T11:12:50.927Z,95205.00
2023-04-17T11:13:50.931Z,95205.00
2023-04-17T11:14:50.985Z,95205.00
2023-04-17T11:15:50.969Z,95207.00
2023-04-17T11:16:51.053Z,95207.00
2023-04-17T11:17:51.029Z,95209.00
2023-04-17T11:18:51.015Z,95205.00
2023-04-17T11:19:51.056Z,95211.00
2023-04-17T11:20:51.041Z,95209.00
2023-04-17T11:21:51.085Z,95213.00
2023-04-17T11:22:51.164Z,95209.00
2023-04-17T11:23:51.187Z,95205.00
2023-04-17T11:24:51.264Z,95211.00
2023-04-17T11:25:51.328Z,95213.00
2023-04-17T11:26:51.542Z,95209.00
2023-04-17T11:27:51.457Z,95211.00
2023-04-17T11:28:51.486Z,95213.00
2023-04-17T11:29:51.522Z,95211.00
2023-04-17T11:30:51.598Z,95211.00
2023-04-17T11:31:52.172Z,95213.00
2023-04-17T11:32:51.720Z,95211.00
2023-04-17T11:33:51.700Z,95213.00
2023-04-17T11:34:51.761Z,95211.00
2023-04-17T11:35:51.761Z,95215.00
2023-04-17T11:36:52.008Z,95213.00
2023-04-17T11:37:51.820Z,95213.00
2023-04-17T11:38:52.514Z,95211.00
2023-04-17T11:39:51.859Z,95213.00
2023-04-17T11:40:51.852Z,95213.00
2023-04-17T11:41:52.067Z,95211.00
2023-04-17T11:42:51.878Z,95209.00
2023-04-17T11:43:51.874Z,95211.00
2023-04-17T11:44:51.893Z,95213.00